AUA219 LOWW-EDDF
Flight info
| Callsign | AUA219 |
|---|---|
| Flight time | N/A |
| Altitude | 30000 |
| Route | BUWUT DCT DITIS DCT RAPET T170 GAPLA/N0409F240 T178 KERAX KERAX5D |
| Aircraft | A320/M-SDE3FGHIRWY/LB1 |
Departure
| Time | 2026-04-22 16:52 |
|---|---|
| Airport | Vienna International Airport (LOWW) |
Arrival
| Time | N/A |
|---|---|
| Airport | Frankfurt Main Airport (EDDF) |
| Time | Latitude | Longitude | Altitude | Speed | Heading |
|---|---|---|---|---|---|
| 2026-04-22 16:37 | 48.11772 | 16.56566 | 597 ft | 0 kts | 25° |
| 2026-04-22 16:43 | 48.11764 | 16.56560 | 597 ft | 2 kts | 30° |
| 2026-04-22 16:43 | 48.11749 | 16.56547 | 597 ft | 2 kts | 30° |
| 2026-04-22 16:43 | 48.11734 | 16.56535 | 598 ft | 3 kts | 42° |
| 2026-04-22 16:43 | 48.11724 | 16.56515 | 598 ft | 2 kts | 62° |
| 2026-04-22 16:44 | 48.11717 | 16.56491 | 598 ft | 3 kts | 86° |
| 2026-04-22 16:44 | 48.11716 | 16.56478 | 598 ft | 0 kts | 100° |
| 2026-04-22 16:45 | 48.11716 | 16.56480 | 598 ft | 2 kts | 101° |
| 2026-04-22 16:45 | 48.11694 | 16.56564 | 598 ft | 15 kts | 116° |
| 2026-04-22 16:46 | 48.11632 | 16.56759 | 600 ft | 22 kts | 116° |
| 2026-04-22 16:46 | 48.11570 | 16.56950 | 602 ft | 19 kts | 115° |
| 2026-04-22 16:46 | 48.11497 | 16.57173 | 612 ft | 27 kts | 116° |
| 2026-04-22 16:46 | 48.11431 | 16.57395 | 613 ft | 15 kts | 90° |
| 2026-04-22 16:47 | 48.11473 | 16.57448 | 613 ft | 13 kts | 27° |
| 2026-04-22 16:47 | 48.11543 | 16.57540 | 619 ft | 13 kts | 82° |
| 2026-04-22 16:47 | 48.11526 | 16.57614 | 618 ft | 11 kts | 114° |
| 2026-04-22 16:47 | 48.11431 | 16.57769 | 609 ft | 25 kts | 166° |
| 2026-04-22 16:48 | 48.11226 | 16.57854 | 603 ft | 33 kts | 166° |
| 2026-04-22 16:48 | 48.11003 | 16.57950 | 605 ft | 33 kts | 164° |
| 2026-04-22 16:48 | 48.10774 | 16.58049 | 612 ft | 35 kts | 163° |
| 2026-04-22 16:48 | 48.10538 | 16.58144 | 609 ft | 36 kts | 163° |
| 2026-04-22 16:49 | 48.10296 | 16.58249 | 600 ft | 34 kts | 164° |
| 2026-04-22 16:49 | 48.10134 | 16.58307 | 602 ft | 16 kts | 176° |
| 2026-04-22 16:49 | 48.10066 | 16.58228 | 609 ft | 11 kts | 208° |
| 2026-04-22 16:49 | 48.09975 | 16.58247 | 614 ft | 16 kts | 164° |
| 2026-04-22 16:50 | 48.09851 | 16.58299 | 614 ft | 21 kts | 164° |
| 2026-04-22 16:50 | 48.09748 | 16.58342 | 613 ft | 25 kts | 164° |
| 2026-04-22 16:50 | 48.09558 | 16.58422 | 603 ft | 32 kts | 164° |
| 2026-04-22 16:50 | 48.09321 | 16.58523 | 600 ft | 39 kts | 164° |
| 2026-04-22 16:51 | 48.09049 | 16.58637 | 596 ft | 40 kts | 164° |
| 2026-04-22 16:51 | 48.08797 | 16.58830 | 597 ft | 31 kts | 111° |
| 2026-04-22 16:51 | 48.08816 | 16.59010 | 595 ft | 23 kts | 53° |
| 2026-04-22 16:51 | 48.08967 | 16.59092 | 597 ft | 28 kts | 346° |
| 2026-04-22 16:52 | 48.09284 | 16.58956 | 598 ft | 78 kts | 344° |
| 2026-04-22 16:52 | 48.10003 | 16.58651 | 601 ft | 134 kts | 344° |
| 2026-04-22 16:52 | 48.11039 | 16.58211 | 782 ft | 162 kts | 344° |
| 2026-04-22 16:52 | 48.12110 | 16.57775 | 1621 ft | 159 kts | 348° |
| 2026-04-22 16:53 | 48.13234 | 16.57890 | 2175 ft | 175 kts | 22° |
| 2026-04-22 16:53 | 48.14382 | 16.58735 | 2502 ft | 199 kts | 25° |
| 2026-04-22 16:53 | 48.15704 | 16.59689 | 2918 ft | 223 kts | 24° |
| 2026-04-22 16:53 | 48.17176 | 16.60730 | 3530 ft | 239 kts | 24° |
| 2026-04-22 16:54 | 48.18696 | 16.61800 | 4421 ft | 244 kts | 26° |
| 2026-04-22 16:54 | 48.20206 | 16.63042 | 5366 ft | 248 kts | 30° |
| 2026-04-22 16:54 | 48.21703 | 16.64385 | 6266 ft | 253 kts | 30° |
| 2026-04-22 16:54 | 48.23331 | 16.65402 | 7120 ft | 257 kts | 11° |
| 2026-04-22 16:55 | 48.25119 | 16.65423 | 7953 ft | 261 kts | 348° |
| 2026-04-22 16:55 | 48.26807 | 16.64374 | 8815 ft | 266 kts | 330° |
| 2026-04-22 16:55 | 48.28404 | 16.62947 | 9729 ft | 269 kts | 330° |
| 2026-04-22 16:55 | 48.30026 | 16.61499 | 10414 ft | 280 kts | 330° |
| 2026-04-22 16:56 | 48.31779 | 16.59940 | 10695 ft | 303 kts | 330° |
| 2026-04-22 16:56 | 48.33667 | 16.58266 | 10952 ft | 326 kts | 330° |
| 2026-04-22 16:56 | 48.35647 | 16.56510 | 11541 ft | 335 kts | 330° |
| 2026-04-22 16:56 | 48.37668 | 16.54719 | 12265 ft | 340 kts | 330° |
| 2026-04-22 16:57 | 48.39720 | 16.52896 | 13028 ft | 344 kts | 330° |
| 2026-04-22 16:57 | 48.41771 | 16.51073 | 13740 ft | 349 kts | 330° |
| 2026-04-22 16:57 | 48.43861 | 16.49155 | 14407 ft | 354 kts | 326° |
| 2026-04-22 16:57 | 48.45747 | 16.46729 | 15066 ft | 359 kts | 314° |
| 2026-04-22 16:58 | 48.47287 | 16.43756 | 15754 ft | 363 kts | 303° |
| 2026-04-22 16:58 | 48.48464 | 16.40380 | 16445 ft | 366 kts | 297° |
| 2026-04-22 16:58 | 48.49587 | 16.36927 | 17126 ft | 369 kts | 297° |
| 2026-04-22 16:58 | 48.50730 | 16.33434 | 17804 ft | 372 kts | 297° |
| 2026-04-22 16:59 | 48.51885 | 16.29915 | 18481 ft | 375 kts | 297° |
| 2026-04-22 16:59 | 48.53049 | 16.26376 | 19067 ft | 378 kts | 297° |
| 2026-04-22 16:59 | 48.54221 | 16.22801 | 19668 ft | 381 kts | 297° |
| 2026-04-22 16:59 | 48.55393 | 16.19202 | 20257 ft | 384 kts | 297° |
| 2026-04-22 17:00 | 48.56569 | 16.15574 | 20851 ft | 386 kts | 296° |
| 2026-04-22 17:00 | 48.58877 | 16.08171 | 21980 ft | 391 kts | 294° |
| 2026-04-22 17:00 | 48.59959 | 16.04405 | 22518 ft | 394 kts | 294° |
| 2026-04-22 17:01 | 48.61017 | 16.00626 | 23056 ft | 396 kts | 293° |
| 2026-04-22 17:01 | 48.62084 | 15.96778 | 23582 ft | 398 kts | 293° |
| 2026-04-22 17:01 | 48.63167 | 15.92892 | 24055 ft | 401 kts | 293° |
| 2026-04-22 17:01 | 48.64259 | 15.89003 | 24472 ft | 403 kts | 293° |
| 2026-04-22 17:02 | 48.65369 | 15.85092 | 24866 ft | 405 kts | 294° |
| 2026-04-22 17:02 | 48.66488 | 15.81149 | 25267 ft | 408 kts | 294° |
| 2026-04-22 17:02 | 48.67611 | 15.77209 | 25652 ft | 410 kts | 294° |
| 2026-04-22 17:02 | 48.68744 | 15.73233 | 26040 ft | 412 kts | 294° |
| 2026-04-22 17:03 | 48.69878 | 15.69239 | 26414 ft | 415 kts | 294° |
| 2026-04-22 17:03 | 48.71018 | 15.65213 | 26766 ft | 418 kts | 294° |
| 2026-04-22 17:03 | 48.72162 | 15.61157 | 27118 ft | 420 kts | 293° |
| 2026-04-22 17:03 | 48.73299 | 15.57122 | 27460 ft | 422 kts | 293° |
| 2026-04-22 17:04 | 48.74442 | 15.53050 | 27800 ft | 425 kts | 293° |
| 2026-04-22 17:04 | 48.75597 | 15.48918 | 28104 ft | 428 kts | 293° |
| 2026-04-22 17:04 | 48.76771 | 15.44715 | 28419 ft | 430 kts | 293° |
| 2026-04-22 17:04 | 48.77941 | 15.40522 | 28723 ft | 432 kts | 293° |
| 2026-04-22 17:05 | 48.79114 | 15.36319 | 29009 ft | 435 kts | 293° |
| 2026-04-22 17:05 | 48.80360 | 15.32127 | 29289 ft | 437 kts | 298° |
| 2026-04-22 17:05 | 48.81976 | 15.28201 | 29568 ft | 438 kts | 306° |
| 2026-04-22 17:05 | 48.83762 | 15.24457 | 29953 ft | 438 kts | 306° |
| 2026-04-22 17:06 | 48.85547 | 15.20696 | 30207 ft | 438 kts | 306° |
| 2026-04-22 17:06 | 48.87307 | 15.16971 | 30246 ft | 434 kts | 306° |
| 2026-04-22 17:06 | 48.90882 | 15.09395 | 30260 ft | 447 kts | 306° |
| 2026-04-22 17:07 | 48.94621 | 15.01688 | 30249 ft | 456 kts | 307° |
| 2026-04-22 17:07 | 48.98438 | 14.93944 | 30256 ft | 458 kts | 307° |
| 2026-04-22 17:08 | 49.02236 | 14.86182 | 30265 ft | 459 kts | 307° |
| 2026-04-22 17:08 | 49.06047 | 14.78304 | 30252 ft | 460 kts | 307° |
| 2026-04-22 17:09 | 49.09830 | 14.70461 | 30253 ft | 461 kts | 307° |
| 2026-04-22 17:09 | 49.13617 | 14.62561 | 30260 ft | 462 kts | 304° |
| 2026-04-22 17:10 | 49.16990 | 14.54163 | 30253 ft | 463 kts | 302° |
| 2026-04-22 17:10 | 49.20230 | 14.45661 | 30258 ft | 463 kts | 301° |
| 2026-04-22 17:11 | 49.23463 | 14.37123 | 30245 ft | 464 kts | 301° |
| 2026-04-22 17:11 | 49.26718 | 14.28594 | 30246 ft | 464 kts | 302° |
| 2026-04-22 17:12 | 49.29986 | 14.20051 | 30243 ft | 465 kts | 302° |
| 2026-04-22 17:12 | 49.33263 | 14.11464 | 30249 ft | 466 kts | 302° |
| 2026-04-22 17:13 | 49.36527 | 14.02864 | 30242 ft | 467 kts | 302° |
| 2026-04-22 17:13 | 49.39790 | 13.94221 | 30245 ft | 468 kts | 301° |
| 2026-04-22 17:14 | 49.43051 | 13.85556 | 30242 ft | 469 kts | 301° |
| 2026-04-22 17:14 | 49.46317 | 13.76847 | 30248 ft | 470 kts | 301° |
| 2026-04-22 17:15 | 49.49581 | 13.68124 | 30245 ft | 471 kts | 301° |
| 2026-04-22 17:15 | 49.52846 | 13.59376 | 30256 ft | 472 kts | 301° |
| 2026-04-22 17:16 | 49.56115 | 13.50595 | 30253 ft | 473 kts | 301° |
| 2026-04-22 17:16 | 49.59380 | 13.41779 | 30258 ft | 474 kts | 301° |
| 2026-04-22 17:17 | 49.62648 | 13.32914 | 30252 ft | 475 kts | 301° |
| 2026-04-22 17:17 | 49.65913 | 13.24041 | 30260 ft | 475 kts | 301° |
| 2026-04-22 17:18 | 49.69169 | 13.15159 | 30256 ft | 476 kts | 301° |
| 2026-04-22 17:18 | 49.72425 | 13.06251 | 30258 ft | 476 kts | 301° |
| 2026-04-22 17:19 | 49.78932 | 12.88349 | 30272 ft | 477 kts | 301° |
| 2026-04-22 17:20 | 49.85391 | 12.70429 | 30265 ft | 479 kts | 301° |
| 2026-04-22 17:21 | 49.90248 | 12.56868 | 30265 ft | 480 kts | 301° |
| 2026-04-22 17:22 | 49.95116 | 12.43277 | 30267 ft | 480 kts | 301° |
| 2026-04-22 17:23 | 49.99958 | 12.29641 | 30266 ft | 481 kts | 301° |
| 2026-04-22 17:23 | 50.04786 | 12.15959 | 30278 ft | 482 kts | 301° |
| 2026-04-22 17:24 | 50.08002 | 12.06804 | 30277 ft | 482 kts | 301° |
| 2026-04-22 17:24 | 50.11209 | 11.97643 | 30283 ft | 483 kts | 301° |
| 2026-04-22 17:25 | 50.14415 | 11.88453 | 30272 ft | 484 kts | 301° |
| 2026-04-22 17:25 | 50.17631 | 11.79206 | 30275 ft | 484 kts | 301° |
| 2026-04-22 17:26 | 50.20835 | 11.69965 | 30269 ft | 485 kts | 301° |
| 2026-04-22 17:26 | 50.24042 | 11.60684 | 30267 ft | 485 kts | 301° |
| 2026-04-22 17:27 | 50.27237 | 11.51374 | 30275 ft | 486 kts | 301° |
| 2026-04-22 17:27 | 50.30435 | 11.42035 | 30277 ft | 487 kts | 301° |
| 2026-04-22 17:28 | 50.33646 | 11.32665 | 30166 ft | 487 kts | 301° |
| 2026-04-22 17:28 | 50.34701 | 11.29582 | 29708 ft | 485 kts | 301° |
| 2026-04-22 17:28 | 50.36279 | 11.24948 | 29265 ft | 478 kts | 301° |
| 2026-04-22 17:29 | 50.37824 | 11.20387 | 28833 ft | 470 kts | 301° |
| 2026-04-22 17:29 | 50.39357 | 11.15855 | 28417 ft | 468 kts | 301° |
| 2026-04-22 17:29 | 50.40881 | 11.11349 | 28008 ft | 468 kts | 301° |
| 2026-04-22 17:29 | 50.42399 | 11.06856 | 27598 ft | 466 kts | 301° |
| 2026-04-22 17:30 | 50.43914 | 11.02362 | 27188 ft | 463 kts | 300° |
| 2026-04-22 17:30 | 50.45413 | 10.97905 | 26789 ft | 461 kts | 300° |
| 2026-04-22 17:30 | 50.46899 | 10.93482 | 26403 ft | 458 kts | 300° |
| 2026-04-22 17:30 | 50.48379 | 10.89063 | 26027 ft | 455 kts | 300° |
| 2026-04-22 17:31 | 50.49840 | 10.84691 | 25645 ft | 452 kts | 300° |
| 2026-04-22 17:31 | 50.51292 | 10.80337 | 25269 ft | 449 kts | 300° |
| 2026-04-22 17:31 | 50.52735 | 10.76007 | 24897 ft | 446 kts | 300° |
| 2026-04-22 17:31 | 50.54169 | 10.71694 | 24531 ft | 444 kts | 300° |
| 2026-04-22 17:32 | 50.55591 | 10.67414 | 24298 ft | 441 kts | 300° |
| 2026-04-22 17:32 | 50.57018 | 10.63118 | 24333 ft | 441 kts | 300° |
| 2026-04-22 17:32 | 50.58406 | 10.58818 | 24318 ft | 443 kts | 296° |
| 2026-04-22 17:32 | 50.59499 | 10.54285 | 24330 ft | 444 kts | 291° |
| 2026-04-22 17:33 | 50.60516 | 10.49747 | 24319 ft | 444 kts | 291° |
| 2026-04-22 17:33 | 50.61561 | 10.45098 | 24327 ft | 444 kts | 292° |
| 2026-04-22 17:33 | 50.62593 | 10.40516 | 24322 ft | 444 kts | 292° |
| 2026-04-22 17:33 | 50.63440 | 10.35837 | 24323 ft | 447 kts | 282° |
| 2026-04-22 17:34 | 50.63762 | 10.30989 | 24323 ft | 449 kts | 272° |
| 2026-04-22 17:34 | 50.63528 | 10.25979 | 24327 ft | 450 kts | 261° |
| 2026-04-22 17:34 | 50.62769 | 10.21280 | 24323 ft | 451 kts | 251° |
| 2026-04-22 17:34 | 50.61486 | 10.16775 | 24326 ft | 451 kts | 241° |
| 2026-04-22 17:35 | 50.59992 | 10.12497 | 24319 ft | 451 kts | 241° |
| 2026-04-22 17:35 | 50.58485 | 10.08168 | 24324 ft | 451 kts | 241° |
| 2026-04-22 17:35 | 50.56973 | 10.03822 | 24323 ft | 451 kts | 241° |
| 2026-04-22 17:35 | 50.55456 | 9.99466 | 24322 ft | 451 kts | 241° |
| 2026-04-22 17:36 | 50.54086 | 9.94960 | 24316 ft | 451 kts | 249° |
| 2026-04-22 17:36 | 50.53149 | 9.90282 | 24323 ft | 451 kts | 255° |
| 2026-04-22 17:36 | 50.52315 | 9.85582 | 24325 ft | 451 kts | 255° |
| 2026-04-22 17:36 | 50.51467 | 9.80839 | 24318 ft | 451 kts | 255° |
| 2026-04-22 17:37 | 50.50613 | 9.76097 | 24315 ft | 450 kts | 255° |
| 2026-04-22 17:37 | 50.49754 | 9.71346 | 24322 ft | 451 kts | 255° |
| 2026-04-22 17:37 | 50.48917 | 9.66607 | 24319 ft | 450 kts | 255° |
| 2026-04-22 17:37 | 50.48094 | 9.61855 | 24314 ft | 450 kts | 256° |
| 2026-04-22 17:38 | 50.47280 | 9.57102 | 24313 ft | 450 kts | 255° |
| 2026-04-22 17:38 | 50.46443 | 9.52373 | 24315 ft | 450 kts | 255° |
| 2026-04-22 17:38 | 50.45569 | 9.47650 | 24312 ft | 450 kts | 254° |
| 2026-04-22 17:38 | 50.44674 | 9.42962 | 24314 ft | 450 kts | 254° |
| 2026-04-22 17:39 | 50.43764 | 9.38259 | 24312 ft | 450 kts | 253° |
| 2026-04-22 17:39 | 50.42804 | 9.33561 | 24308 ft | 450 kts | 249° |
| 2026-04-22 17:39 | 50.39633 | 9.25160 | 24230 ft | 451 kts | 229° |
| 2026-04-22 17:40 | 50.37418 | 9.21659 | 24314 ft | 452 kts | 219° |
| 2026-04-22 17:40 | 50.34877 | 9.18782 | 24306 ft | 451 kts | 210° |
| 2026-04-22 17:40 | 50.32193 | 9.16113 | 24303 ft | 451 kts | 214° |
| 2026-04-22 17:40 | 50.29763 | 9.12990 | 24308 ft | 453 kts | 223° |